Time;durP1;ratioP1;P1;durP2;ratioP2;P2;SDS_P1;SDS_P2;PMS_P1;PMS_P2;Temp;Humidity;BMP_temperature;BMP_pressure;BME280_temperature;BME280_humidity;BME280_pressure;Samples;Min_cycle;Max_cycle;Signal;HPM_P1;HPM_P2
2022/02/08 00:02:13;;;;;;;18.80;16.60;;;;;;;;;;5018682;28;20207;-42
2022/02/08 00:04:39;;;;;;;23.27;20.80;;;;;;;;;;5016720;28;20036;-44
2022/02/08 00:07:07;;;;;;;40.83;23.50;;;;;;;;;;5018915;28;20021;-45
2022/02/08 00:09:33;;;;;;;26.20;23.15;;;;;;;;;;5014627;28;20072;-45
2022/02/08 00:11:59;;;;;;;25.02;22.08;;;;;;;;;;5020642;28;20069;-42
2022/02/08 00:14:24;;;;;;;23.75;18.42;;;;;;;;;;5019511;28;20026;-43
2022/02/08 00:16:50;;;;;;;23.67;20.25;;;;;;;;;;5014187;28;20022;-44
2022/02/08 00:19:15;;;;;;;26.67;21.50;;;;;;;;;;5022257;28;20352;-43
2022/02/08 00:21:40;;;;;;;23.10;20.67;;;;;;;;;;5012910;28;20029;-46
2022/02/08 00:24:06;;;;;;;31.15;24.40;;;;;;;;;;5015720;28;20029;-43
2022/02/08 00:26:31;;;;;;;36.42;28.35;;;;;;;;;;5015965;28;20522;-42
2022/02/08 00:28:56;;;;;;;35.92;25.90;;;;;;;;;;5014922;28;20109;-43
2022/02/08 00:31:22;;;;;;;44.13;29.88;;;;;;;;;;5014428;28;20025;-49
2022/02/08 00:33:47;;;;;;;33.25;29.77;;;;;;;;;;5017189;28;20030;-46
2022/02/08 00:36:12;;;;;;;62.40;29.33;;;;;;;;;;5013280;28;20029;-47
2022/02/08 00:38:38;;;;;;;27.70;22.08;;;;;;;;;;5014955;28;20042;-44
2022/02/08 00:41:04;;;;;;;30.52;22.08;;;;;;;;;;5015713;28;20013;-44
2022/02/08 00:43:36;;;;;;;22.77;18.05;;;;;;;;;;5016702;28;20470;-42
2022/02/08 00:46:10;;;;;;;23.63;16.73;;;;;;;;;;5013595;28;20502;-47
2022/02/08 00:48:41;;;;;;;25.05;17.20;;;;;;;;;;5013593;28;20053;-45
2022/02/08 00:51:07;;;;;;;18.75;14.75;;;;;;;;;;5016120;28;20033;-46
2022/02/08 00:53:33;;;;;;;20.17;12.75;;;;;;;;;;5016526;28;20032;-43
2022/02/08 00:55:58;;;;;;;12.57;11.38;;;;;;;;;;5018653;28;20390;-45
2022/02/08 00:58:23;;;;;;;11.05;9.90;;;;;;;;;;5017226;28;20018;-47
2022/02/08 01:00:49;;;;;;;13.38;10.15;;;;;;;;;;5016143;28;20497;-44
2022/02/08 01:03:16;;;;;;;10.95;9.77;;;;;;;;;;5015206;28;20030;-44
2022/02/08 01:05:46;;;;;;;16.23;10.57;;;;;;;;;;5016538;28;20021;-43
2022/02/08 01:08:12;;;;;;;16.08;10.80;;;;;;;;;;5015971;28;20084;-46
2022/02/08 01:10:39;;;;;;;14.13;10.85;;;;;;;;;;5013097;28;20025;-44
2022/02/08 01:13:06;;;;;;;9.73;8.10;;;;;;;;;;5020370;28;20034;-45
2022/02/08 01:15:31;;;;;;;12.52;9.52;;;;;;;;;;5016413;28;20017;-45
2022/02/08 01:17:58;;;;;;;9.98;7.90;;;;;;;;;;5015775;28;20080;-44
2022/02/08 01:20:31;;;;;;;16.60;11.35;;;;;;;;;;5019398;28;20014;-40
2022/02/08 01:22:58;;;;;;;17.25;11.73;;;;;;;;;;5015461;28;20331;-41
2022/02/08 01:25:30;;;;;;;10.05;8.93;;;;;;;;;;5014360;28;20025;-42
2022/02/08 01:28:03;;;;;;;8.45;7.63;;;;;;;;;;5016164;28;20092;-40
2022/02/08 01:30:41;;;;;;;15.60;8.90;;;;;;;;;;5016515;28;20554;-42
2022/02/08 01:38:10;;;;;;;27.20;17.77;;;;;;;;;;5015813;28;20116;-45
2022/02/08 01:48:51;;;;;;;8.05;6.93;;;;;;;;;;5015481;28;20045;-46
2022/02/08 01:51:16;;;;;;;22.00;13.00;;;;;;;;;;5014953;28;20049;-42
2022/02/08 01:53:42;;;;;;;16.73;11.52;;;;;;;;;;5012341;28;20022;-44
2022/02/08 01:56:08;;;;;;;20.40;11.20;;;;;;;;;;5016464;28;20037;-43
2022/02/08 01:58:33;;;;;;;24.58;11.63;;;;;;;;;;5014110;28;20026;-43
2022/02/08 02:00:58;;;;;;;15.07;10.07;;;;;;;;;;5013706;28;20026;-48
2022/02/08 02:03:24;;;;;;;18.92;9.93;;;;;;;;;;5015214;28;20071;-43
2022/02/08 02:05:52;;;;;;;19.92;10.05;;;;;;;;;;5014857;28;20119;-44
2022/02/08 02:08:18;;;;;;;14.65;10.13;;;;;;;;;;5017201;28;20495;-42
2022/02/08 02:10:44;;;;;;;23.35;13.57;;;;;;;;;;5017978;28;20103;-41
2022/02/08 02:13:22;;;;;;;45.30;19.98;;;;;;;;;;5019636;28;20017;-44
2022/02/08 02:15:47;;;;;;;56.28;25.40;;;;;;;;;;5016427;28;20025;-44
2022/02/08 02:18:13;;;;;;;36.65;15.40;;;;;;;;;;5015087;28;20544;-43
2022/02/08 02:20:38;;;;;;;30.40;13.05;;;;;;;;;;5014968;28;20026;-44
2022/02/08 02:23:03;;;;;;;18.85;13.30;;;;;;;;;;5014975;28;20018;-44
2022/02/08 02:25:30;;;;;;;21.15;11.77;;;;;;;;;;5019844;28;20025;-46
2022/02/08 02:27:57;;;;;;;47.85;21.13;;;;;;;;;;5018717;28;20434;-44
2022/02/08 02:30:24;;;;;;;55.13;23.40;;;;;;;;;;5015218;28;20050;-41
2022/02/08 02:32:49;;;;;;;50.20;21.40;;;;;;;;;;5013251;28;20022;-45
2022/02/08 02:35:14;;;;;;;44.47;18.50;;;;;;;;;;5013821;28;20047;-41
2022/02/08 02:37:39;;;;;;;37.30;15.35;;;;;;;;;;5014427;28;20418;-46
2022/02/08 02:40:05;;;;;;;24.85;13.68;;;;;;;;;;5015100;28;20800;-41
2022/02/08 02:42:31;;;;;;;31.17;11.18;;;;;;;;;;5012766;28;20022;-42
2022/02/08 02:44:59;;;;;;;20.33;10.30;;;;;;;;;;5016075;28;20022;-43
2022/02/08 02:47:25;;;;;;;20.00;10.25;;;;;;;;;;5013842;28;20045;-42
2022/02/08 02:49:50;;;;;;;27.25;10.80;;;;;;;;;;5015295;28;20049;-43
2022/02/08 02:52:16;;;;;;;17.45;10.02;;;;;;;;;;5014642;28;20085;-46
2022/02/08 02:54:41;;;;;;;19.40;6.53;;;;;;;;;;5013210;28;20068;-45
2022/02/08 02:57:07;;;;;;;11.10;5.03;;;;;;;;;;5015984;28;20098;-43
2022/02/08 02:59:34;;;;;;;10.30;6.60;;;;;;;;;;5015671;28;20454;-44
2022/02/08 03:04:39;;;;;;;20.38;6.80;;;;;;;;;;5015632;28;20092;-43
2022/02/08 03:20:29;;;;;;;10.10;3.28;;;;;;;;;;5017896;28;20096;-43
2022/02/08 03:22:54;;;;;;;8.40;3.67;;;;;;;;;;5017996;28;20061;-45
2022/02/08 03:25:20;;;;;;;6.93;4.68;;;;;;;;;;5019692;28;20034;-43
2022/02/08 03:27:45;;;;;;;7.38;5.03;;;;;;;;;;5021179;28;20017;-41
2022/02/08 03:30:10;;;;;;;7.53;6.68;;;;;;;;;;5017510;28;20036;-44
2022/02/08 03:32:35;;;;;;;11.13;7.00;;;;;;;;;;5018204;28;20068;-45
2022/02/08 03:35:01;;;;;;;18.33;9.15;;;;;;;;;;5017044;28;20021;-46
2022/02/08 03:37:29;;;;;;;11.68;7.65;;;;;;;;;;5017714;28;20026;-42
2022/02/08 03:40:00;;;;;;;15.82;10.43;;;;;;;;;;5016255;28;20060;-41
2022/02/08 03:42:35;;;;;;;30.75;12.55;;;;;;;;;;5016961;28;20018;-41
2022/02/08 03:45:02;;;;;;;9.45;8.15;;;;;;;;;;5018312;28;20080;-46
2022/02/08 03:47:27;;;;;;;13.75;7.15;;;;;;;;;;5016046;28;20096;-43
2022/02/08 03:49:53;;;;;;;17.20;7.60;;;;;;;;;;5016209;28;20033;-41
2022/02/08 03:52:18;;;;;;;11.38;6.47;;;;;;;;;;5019076;28;20025;-45
2022/02/08 03:54:44;;;;;;;18.55;6.72;;;;;;;;;;5018903;28;20018;-47
2022/02/08 03:57:10;;;;;;;5.43;4.40;;;;;;;;;;5016947;28;20501;-46
2022/02/08 03:59:36;;;;;;;12.73;6.05;;;;;;;;;;5014778;28;20029;-42
2022/02/08 04:04:33;;;;;;;4.43;3.15;;;;;;;;;;5016495;28;20029;-42
2022/02/08 04:07:03;;;;;;;14.57;5.00;;;;;;;;;;5016985;28;20608;-43
2022/02/08 04:09:28;;;;;;;9.73;3.70;;;;;;;;;;5018368;28;20109;-45
2022/02/08 04:12:11;;;;;;;10.15;3.22;;;;;;;;;;5016949;28;20126;-46
2022/02/08 04:15:04;;;;;;;6.97;4.05;;;;;;;;;;5017421;28;20059;-42
2022/02/08 04:17:56;;;;;;;4.85;2.35;;;;;;;;;;5017333;28;20046;-43
2022/02/08 04:41:29;;;;;;;6.45;4.07;;;;;;;;;;5017545;28;20076;-44
2022/02/08 04:44:11;;;;;;;6.10;3.97;;;;;;;;;;5016096;28;20099;-42
2022/02/08 04:46:50;;;;;;;7.10;4.38;;;;;;;;;;5016868;28;20018;-42
2022/02/08 04:49:15;;;;;;;4.68;2.63;;;;;;;;;;5013157;28;20126;-41
2022/02/08 04:51:46;;;;;;;6.10;3.40;;;;;;;;;;5014886;28;20105;-42
2022/02/08 05:34:50;;;;;;;3.92;2.28;;;;;;;;;;5015604;28;20040;-44
2022/02/08 05:43:03;;;;;;;14.02;5.88;;;;;;;;;;5015581;28;20036;-43
2022/02/08 05:45:33;;;;;;;9.52;4.80;;;;;;;;;;5016403;28;20026;-43
2022/02/08 05:48:02;;;;;;;6.43;5.00;;;;;;;;;;5016864;28;20049;-42
2022/02/08 05:50:44;;;;;;;5.95;5.22;;;;;;;;;;5017083;28;20021;-44
2022/02/08 05:53:28;;;;;;;7.13;6.20;;;;;;;;;;5015069;28;20021;-42
2022/02/08 05:55:54;;;;;;;7.22;6.22;;;;;;;;;;5016263;28;20014;-42
2022/02/08 05:58:19;;;;;;;6.40;4.13;;;;;;;;;;5019509;28;20548;-43
2022/02/08 06:00:45;;;;;;;3.67;3.00;;;;;;;;;;5015622;28;20013;-43
2022/02/08 06:03:10;;;;;;;6.20;3.20;;;;;;;;;;5014159;28;20026;-43
2022/02/08 06:05:36;;;;;;;3.78;2.83;;;;;;;;;;5017849;28;20763;-44
2022/02/08 06:08:01;;;;;;;37.00;23.10;;;;;;;;;;5017744;28;20092;-43
2022/02/08 06:10:28;;;;;;;51.55;23.42;;;;;;;;;;5013463;28;20021;-42
2022/02/08 06:12:55;;;;;;;20.15;10.40;;;;;;;;;;5013264;28;20018;-49
2022/02/08 06:15:23;;;;;;;21.05;7.10;;;;;;;;;;5017566;28;20067;-43
2022/02/08 06:17:49;;;;;;;8.05;4.50;;;;;;;;;;5016315;28;20145;-44
2022/02/08 06:20:15;;;;;;;6.43;5.03;;;;;;;;;;5017748;28;20017;-42
2022/02/08 06:22:41;;;;;;;9.45;4.57;;;;;;;;;;5014732;28;20018;-46
2022/02/08 06:25:09;;;;;;;5.20;2.97;;;;;;;;;;5018250;28;20069;-42
2022/02/08 06:27:35;;;;;;;7.05;4.35;;;;;;;;;;5015691;28;20071;-42
2022/02/08 06:30:00;;;;;;;6.78;5.05;;;;;;;;;;5015157;28;20105;-42
2022/02/08 06:32:27;;;;;;;10.80;7.18;;;;;;;;;;5015095;28;20068;-41
2022/02/08 06:34:55;;;;;;;6.38;4.50;;;;;;;;;;5012520;28;20050;-44
2022/02/08 06:37:22;;;;;;;6.82;5.00;;;;;;;;;;5013006;28;20403;-45
2022/02/08 06:39:47;;;;;;;16.17;5.95;;;;;;;;;;5014167;28;20025;-44
2022/02/08 06:42:12;;;;;;;10.70;7.07;;;;;;;;;;5016045;28;20026;-46
2022/02/08 06:44:38;;;;;;;9.55;4.75;;;;;;;;;;5014806;28;20022;-41
2022/02/08 06:47:04;;;;;;;9.68;5.47;;;;;;;;;;5014771;28;20120;-43
2022/02/08 06:49:29;;;;;;;13.68;7.25;;;;;;;;;;5018218;28;20566;-44
2022/02/08 06:51:54;;;;;;;11.65;7.60;;;;;;;;;;5016123;28;20029;-50
2022/02/08 06:54:19;;;;;;;13.55;5.38;;;;;;;;;;5016588;28;20108;-42
2022/02/08 06:56:46;;;;;;;9.10;5.43;;;;;;;;;;5018070;28;20021;-47
2022/02/08 06:59:14;;;;;;;14.52;5.40;;;;;;;;;;5018109;28;20034;-48
2022/02/08 07:01:40;;;;;;;17.23;5.20;;;;;;;;;;5015401;28;20028;-46
2022/02/08 07:04:08;;;;;;;32.08;14.85;;;;;;;;;;5016862;28;20043;-44
2022/02/08 07:06:33;;;;;;;19.80;14.23;;;;;;;;;;5022316;28;20626;-45
2022/02/08 07:08:58;;;;;;;29.73;11.63;;;;;;;;;;5015398;28;20105;-42
2022/02/08 07:11:25;;;;;;;16.02;6.57;;;;;;;;;;5012277;28;20052;-46
2022/02/08 07:13:52;;;;;;;10.38;7.25;;;;;;;;;;5019999;28;20131;-45
2022/02/08 07:16:17;;;;;;;8.95;7.82;;;;;;;;;;5018587;28;20049;-42
2022/02/08 07:18:43;;;;;;;34.17;30.13;;;;;;;;;;5017119;28;20028;-45
2022/02/08 07:21:08;;;;;;;25.40;20.48;;;;;;;;;;5015213;28;20029;-42
2022/02/08 07:23:34;;;;;;;17.55;15.88;;;;;;;;;;5018641;28;20173;-42
2022/02/08 07:26:00;;;;;;;19.50;16.95;;;;;;;;;;5015506;28;20017;-45
2022/02/08 07:28:25;;;;;;;35.13;15.45;;;;;;;;;;5017976;28;20033;-47
2022/02/08 07:30:59;;;;;;;18.70;15.57;;;;;;;;;;5014491;28;20558;-42
2022/02/08 07:33:24;;;;;;;36.25;25.15;;;;;;;;;;5016912;28;20033;-45
2022/02/08 07:38:24;;;;;;;39.72;27.40;;;;;;;;;;5016239;28;20026;-43
2022/02/08 07:43:15;;;;;;;31.75;24.45;;;;;;;;;;5017965;28;20433;-44
2022/02/08 07:45:41;;;;;;;46.45;28.80;;;;;;;;;;5018256;28;20022;-43
2022/02/08 07:48:06;;;;;;;50.03;31.77;;;;;;;;;;5015375;28;20755;-44
2022/02/08 07:50:37;;;;;;;26.90;23.98;;;;;;;;;;5014890;28;20087;-38
2022/02/08 07:53:03;;;;;;;38.92;28.05;;;;;;;;;;5019423;28;20340;-38
2022/02/08 07:55:28;;;;;;;47.67;29.40;;;;;;;;;;5016050;28;20474;-40
2022/02/08 07:57:53;;;;;;;39.00;27.30;;;;;;;;;;5020030;28;20067;-38
2022/02/08 08:00:19;;;;;;;55.72;25.52;;;;;;;;;;5017451;28;20024;-40
2022/02/08 08:02:44;;;;;;;41.78;21.33;;;;;;;;;;5018164;28;20036;-42
2022/02/08 08:05:10;;;;;;;28.80;16.00;;;;;;;;;;5017704;28;20150;-39
2022/02/08 08:07:35;;;;;;;32.88;18.63;;;;;;;;;;5017994;28;20013;-38
2022/02/08 08:10:02;;;;;;;43.55;27.45;;;;;;;;;;5015722;28;20461;-39
2022/02/08 08:12:28;;;;;;;37.10;21.80;;;;;;;;;;5019113;28;20038;-38
2022/02/08 08:14:54;;;;;;;35.60;23.70;;;;;;;;;;5017984;28;20031;-36
2022/02/08 08:19:54;;;;;;;43.17;38.90;;;;;;;;;;5018498;28;20027;-40
2022/02/08 08:22:20;;;;;;;43.22;36.80;;;;;;;;;;5014073;28;20422;-37
2022/02/08 08:24:45;;;;;;;47.65;35.28;;;;;;;;;;5011717;28;20022;-36
2022/02/08 08:27:12;;;;;;;38.80;30.33;;;;;;;;;;5015324;28;20029;-39
2022/02/08 08:29:37;;;;;;;51.45;32.15;;;;;;;;;;5017180;28;20024;-37
2022/02/08 08:32:06;;;;;;;32.08;25.40;;;;;;;;;;5013178;28;20029;-37
2022/02/08 08:34:35;;;;;;;36.80;24.63;;;;;;;;;;5011747;28;20848;-40
2022/02/08 08:37:01;;;;;;;28.75;25.42;;;;;;;;;;5012267;28;20080;-38
2022/02/08 08:39:33;;;;;;;37.65;25.15;;;;;;;;;;5013852;28;20049;-39
2022/02/08 08:52:10;;;;;;;39.42;28.77;;;;;;;;;;5015643;28;20037;-39
2022/02/08 08:54:35;;;;;;;43.33;31.13;;;;;;;;;;5013615;28;20037;-38
2022/02/08 08:57:01;;;;;;;46.63;34.67;;;;;;;;;;5015175;28;20025;-42
2022/02/08 08:59:26;;;;;;;55.05;37.53;;;;;;;;;;5012478;28;20022;-40
2022/02/08 09:01:52;;;;;;;52.13;39.83;;;;;;;;;;5014370;28;20021;-41
2022/02/08 09:04:18;;;;;;;62.92;40.30;;;;;;;;;;5013857;28;20056;-40
2022/02/08 09:06:46;;;;;;;58.55;44.17;;;;;;;;;;5014019;28;20522;-40
2022/02/08 09:09:14;;;;;;;44.92;37.58;;;;;;;;;;5016522;28;20044;-39
2022/02/08 09:14:11;;;;;;;45.50;27.65;;;;;;;;;;5014770;28;20108;-40
2022/02/08 09:21:48;;;;;;;54.95;31.02;;;;;;;;;;5015511;28;20025;-40
2022/02/08 09:24:35;;;;;;;36.00;27.35;;;;;;;;;;5016318;28;20045;-44
2022/02/08 09:29:50;;;;;;;180.82;136.45;;;;;;;;;;5015838;28;20017;-40
2022/02/08 09:32:28;;;;;;;275.77;193.88;;;;;;;;;;5012764;28;20021;-41
2022/02/08 09:34:53;;;;;;;132.85;112.22;;;;;;;;;;5013877;28;20025;-38
2022/02/08 09:37:19;;;;;;;125.53;97.53;;;;;;;;;;5013309;28;20060;-42
2022/02/08 09:39:45;;;;;;;93.65;64.28;;;;;;;;;;5012761;28;20030;-38
2022/02/08 09:42:11;;;;;;;29.20;20.17;;;;;;;;;;5014885;28;20024;-38
2022/02/08 09:44:37;;;;;;;51.00;31.77;;;;;;;;;;5016393;28;20100;-39
2022/02/08 09:47:08;;;;;;;31.52;21.80;;;;;;;;;;5012105;28;20109;-41
2022/02/08 09:49:40;;;;;;;27.13;15.50;;;;;;;;;;5015325;28;20683;-41
2022/02/08 09:52:05;;;;;;;36.42;11.57;;;;;;;;;;5014187;28;20073;-41
2022/02/08 09:54:31;;;;;;;8.88;6.72;;;;;;;;;;5015429;28;20064;-43
2022/02/08 09:56:56;;;;;;;10.25;6.85;;;;;;;;;;5014214;28;20493;-41
2022/02/08 09:59:22;;;;;;;14.88;6.88;;;;;;;;;;5014520;28;20052;-44
2022/02/08 10:01:51;;;;;;;13.05;5.78;;;;;;;;;;5015143;28;20079;-39
2022/02/08 10:04:16;;;;;;;9.82;5.05;;;;;;;;;;5013751;28;20045;-44
2022/02/08 10:06:42;;;;;;;6.38;4.47;;;;;;;;;;5014149;28;20408;-43
2022/02/08 10:09:11;;;;;;;5.57;3.78;;;;;;;;;;5015237;28;20021;-45
2022/02/08 10:11:46;;;;;;;5.63;3.10;;;;;;;;;;5015459;28;20234;-41
2022/02/08 10:22:07;;;;;;;9.45;2.80;;;;;;;;;;5019753;28;20018;-41
2022/02/08 10:24:36;;;;;;;11.10;4.65;;;;;;;;;;5020548;28;20059;-40
2022/02/08 10:27:06;;;;;;;7.95;4.55;;;;;;;;;;5019096;28;20028;-41
2022/02/08 10:38:07;;;;;;;4.25;2.60;;;;;;;;;;5016068;28;20109;-38
2022/02/08 10:40:36;;;;;;;10.45;3.15;;;;;;;;;;5017166;28;20493;-43
2022/02/08 10:43:03;;;;;;;12.60;2.72;;;;;;;;;;5021703;28;20017;-40
2022/02/08 10:45:30;;;;;;;17.60;2.85;;;;;;;;;;5020663;28;20026;-44
2022/02/08 10:48:04;;;;;;;16.35;2.60;;;;;;;;;;5020829;28;20054;-42
2022/02/08 10:50:31;;;;;;;5.20;2.15;;;;;;;;;;5014041;28;20103;-42
2022/02/08 10:52:58;;;;;;;7.13;3.47;;;;;;;;;;5021385;28;20037;-41
2022/02/08 10:58:17;;;;;;;4.57;2.25;;;;;;;;;;5017935;28;20109;-40
2022/02/08 11:03:07;;;;;;;10.70;3.30;;;;;;;;;;5019951;28;20519;-41
2022/02/08 11:13:58;;;;;;;8.05;4.22;;;;;;;;;;5015398;28;20031;-43
2022/02/08 11:16:30;;;;;;;16.63;2.78;;;;;;;;;;5020416;28;20017;-45
2022/02/08 11:19:25;;;;;;;9.07;2.83;;;;;;;;;;5017376;28;20520;-42
2022/02/08 11:24:41;;;;;;;5.90;3.20;;;;;;;;;;5018829;28;20048;-46
2022/02/08 11:27:13;;;;;;;6.30;4.68;;;;;;;;;;5019799;28;20117;-44
2022/02/08 11:29:48;;;;;;;12.85;3.58;;;;;;;;;;5018376;28;20034;-42
2022/02/08 11:46:39;;;;;;;13.75;6.32;;;;;;;;;;5003068;28;20034;-39
2022/02/08 12:07:34;;;;;;;16.42;7.90;;;;;;;;;;5016046;28;20149;-42
2022/02/08 12:10:13;;;;;;;15.55;6.40;;;;;;;;;;5014555;28;20038;-43
2022/02/08 12:30:47;;;;;;;7.45;3.40;;;;;;;;;;5019609;28;20697;-49
2022/02/08 12:32:14;;;;;;;4.20;3.17;;;;;;;;;;5019999;28;20037;-45
2022/02/08 13:05:11;;;;;;;11.98;3.03;;;;;;;;;;5016955;28;20021;-44
2022/02/08 14:07:08;;;;;;;7.90;2.63;;;;;;;;;;5004346;28;21079;-45
2022/02/08 14:19:50;;;;;;;11.40;5.63;;;;;;;;;;5014892;28;20063;-43
2022/02/08 14:25:46;;;;;;;12.63;8.93;;;;;;;;;;5008452;28;20053;-41
2022/02/08 14:30:58;;;;;;;10.43;5.22;;;;;;;;;;5015020;28;20403;-41
2022/02/08 15:08:20;;;;;;;13.25;2.63;;;;;;;;;;5018953;28;20080;-44
2022/02/08 15:10:52;;;;;;;8.80;3.25;;;;;;;;;;5018699;28;20041;-44
2022/02/08 15:13:20;;;;;;;4.47;2.10;;;;;;;;;;5019759;28;20048;-46
2022/02/08 15:18:38;;;;;;;;;;;;;;;;;;5013162;28;20087;-45
2022/02/08 15:21:05;;;;;;;21.70;10.88;;;;;;;;;;5019118;28;19909;-46
2022/02/08 15:23:30;;;;;;;19.00;10.55;;;;;;;;;;5020603;28;20033;-41
2022/02/08 15:25:58;;;;;;;10.00;7.45;;;;;;;;;;5017321;28;20028;-40
2022/02/08 15:28:24;;;;;;;9.30;4.22;;;;;;;;;;5015325;28;20452;-42
2022/02/08 15:30:50;;;;;;;7.55;4.32;;;;;;;;;;5016891;28;20049;-42
2022/02/08 15:33:15;;;;;;;15.50;8.05;;;;;;;;;;5018732;28;20147;-41
2022/02/08 15:35:41;;;;;;;11.93;7.80;;;;;;;;;;5018253;28;20371;-40
2022/02/08 15:38:06;;;;;;;11.57;6.30;;;;;;;;;;5015431;28;20467;-43
2022/02/08 15:40:32;;;;;;;18.63;8.30;;;;;;;;;;5019256;28;20051;-42
2022/02/08 15:42:58;;;;;;;12.63;6.55;;;;;;;;;;5023209;28;20018;-40
2022/02/08 15:45:29;;;;;;;31.92;9.27;;;;;;;;;;5016368;28;20509;-44
2022/02/08 15:47:57;;;;;;;15.15;8.20;;;;;;;;;;5016820;28;20072;-41
2022/02/08 15:50:31;;;;;;;19.05;7.38;;;;;;;;;;5019358;28;20519;-41
2022/02/08 15:53:25;;;;;;;18.50;8.18;;;;;;;;;;5017094;28;20038;-40
2022/02/08 15:56:17;;;;;;;8.90;2.85;;;;;;;;;;5021755;28;20030;-42
2022/02/08 16:07:08;;;;;;;12.73;7.15;;;;;;;;;;5018633;28;20156;-39
2022/02/08 16:12:49;;;;;;;18.30;11.30;;;;;;;;;;5006452;28;20117;-41
2022/02/08 16:15:38;;;;;;;12.60;6.47;;;;;;;;;;5018971;28;20060;-42
2022/02/08 16:18:51;;;;;;;5.55;2.60;;;;;;;;;;5017571;28;20030;-40
2022/02/08 16:21:06;;;;;;;22.00;7.63;;;;;;;;;;5015135;28;20454;-42
2022/02/08 16:29:00;;;;;;;6.13;3.47;;;;;;;;;;5016672;28;20082;-40
2022/02/08 16:58:07;;;;;;;14.70;11.43;;;;;;;;;;5017448;28;20031;-40
2022/02/08 17:00:33;;;;;;;20.65;12.18;;;;;;;;;;5014153;28;20060;-41
2022/02/08 17:03:04;;;;;;;18.55;10.02;;;;;;;;;;5015792;28;20054;-38
2022/02/08 17:05:29;;;;;;;16.67;13.30;;;;;;;;;;5016949;28;20021;-39
2022/02/08 17:07:55;;;;;;;20.85;13.70;;;;;;;;;;5018997;28;20021;-40
2022/02/08 17:10:40;;;;;;;15.25;13.02;;;;;;;;;;5015654;28;20376;-37
2022/02/08 17:47:49;;;;;;;35.05;22.58;;;;;;;;;;5015932;28;20096;-40
2022/02/08 17:50:16;;;;;;;34.85;23.52;;;;;;;;;;5014366;28;20090;-41
2022/02/08 17:52:42;;;;;;;23.80;19.80;;;;;;;;;;5019897;28;20019;-40
2022/02/08 17:55:09;;;;;;;36.75;26.63;;;;;;;;;;5013768;28;20116;-42
2022/02/08 17:57:34;;;;;;;30.85;27.58;;;;;;;;;;5012195;28;20061;-45
2022/02/08 18:00:00;;;;;;;43.08;32.10;;;;;;;;;;5013349;28;20028;-41
2022/02/08 18:02:25;;;;;;;73.88;49.90;;;;;;;;;;5015061;28;20555;-40
2022/02/08 18:04:53;;;;;;;50.70;43.28;;;;;;;;;;5015295;28;20579;-45
2022/02/08 18:07:21;;;;;;;55.03;49.25;;;;;;;;;;5012489;28;20245;-42
2022/02/08 18:09:47;;;;;;;46.15;40.63;;;;;;;;;;5012831;28;20060;-44
2022/02/08 18:12:13;;;;;;;40.40;29.80;;;;;;;;;;5013367;28;20076;-40
2022/02/08 18:14:41;;;;;;;38.63;31.70;;;;;;;;;;5016327;28;20025;-44
2022/02/08 18:17:11;;;;;;;41.65;30.75;;;;;;;;;;5018573;28;20140;-39
2022/02/08 18:19:39;;;;;;;46.17;41.30;;;;;;;;;;5016576;28;20017;-40
2022/02/08 19:07:46;;;;;;;43.30;34.63;;;;;;;;;;5015757;28;20054;-45
2022/02/08 19:16:29;;;;;;;46.15;41.55;;;;;;;;;;5015369;28;20060;-47
2022/02/08 19:18:41;;;;;;;65.07;48.38;;;;;;;;;;5015692;28;20519;-49
2022/02/08 19:23:50;;;;;;;46.90;38.75;;;;;;;;;;5012453;28;20148;-45
2022/02/08 19:26:18;;;;;;;86.25;58.30;;;;;;;;;;5013965;28;20570;-46
2022/02/08 19:28:44;;;;;;;49.63;34.92;;;;;;;;;;5013947;28;20060;-44
2022/02/08 19:31:09;;;;;;;42.70;33.20;;;;;;;;;;5014616;28;20101;-44
2022/02/08 19:33:34;;;;;;;49.25;33.63;;;;;;;;;;5014947;28;20032;-44
2022/02/08 19:36:00;;;;;;;42.05;37.47;;;;;;;;;;5014525;28;20533;-48
2022/02/08 19:38:27;;;;;;;57.72;42.03;;;;;;;;;;5016943;28;20163;-45
2022/02/08 19:40:52;;;;;;;64.03;49.25;;;;;;;;;;5013554;28;20026;-42
2022/02/08 19:43:18;;;;;;;36.95;32.05;;;;;;;;;;5015231;28;20037;-45
2022/02/08 19:45:44;;;;;;;52.60;33.40;;;;;;;;;;5018677;28;20078;-47
2022/02/08 19:48:10;;;;;;;46.17;35.50;;;;;;;;;;5016645;28;20140;-47
2022/02/08 19:50:36;;;;;;;46.35;41.25;;;;;;;;;;5016260;28;20129;-44
2022/02/08 19:53:08;;;;;;;41.40;36.97;;;;;;;;;;5015912;28;20076;-46
2022/02/08 19:58:09;;;;;;;54.00;48.47;;;;;;;;;;5015300;28;20022;-46
2022/02/08 20:00:36;;;;;;;32.83;26.52;;;;;;;;;;5015689;28;20112;-45
2022/02/08 20:03:04;;;;;;;31.70;26.58;;;;;;;;;;5015560;28;20065;-49
2022/02/08 20:05:31;;;;;;;35.15;23.45;;;;;;;;;;5014450;28;20021;-48
2022/02/08 20:07:57;;;;;;;43.38;26.63;;;;;;;;;;5017420;28;20029;-47
2022/02/08 20:10:22;;;;;;;36.10;22.52;;;;;;;;;;5017226;28;20217;-45
2022/02/08 20:12:48;;;;;;;56.90;39.35;;;;;;;;;;5016552;28;20022;-47
2022/02/08 20:15:13;;;;;;;52.70;41.90;;;;;;;;;;5016439;28;20529;-46
2022/02/08 20:17:38;;;;;;;53.67;34.53;;;;;;;;;;5014080;28;20060;-50
2022/02/08 20:20:10;;;;;;;37.20;28.30;;;;;;;;;;5017126;28;20053;-50
2022/02/08 20:22:35;;;;;;;;;;;;;;;;;;5013577;28;20097;-47
2022/02/08 20:25:04;;;;;;;42.70;25.42;;;;;;;;;;5012195;28;20454;-47
2022/02/08 20:30:10;;;;;;;34.58;28.38;;;;;;;;;;5015436;28;20053;-49
2022/02/08 20:32:36;;;;;;;30.40;27.15;;;;;;;;;;5015650;28;20922;-44
2022/02/08 20:35:01;;;;;;;28.85;25.80;;;;;;;;;;5015441;28;20103;-45
2022/02/08 20:37:26;;;;;;;30.90;25.52;;;;;;;;;;5011746;28;20025;-47
2022/02/08 20:39:52;;;;;;;28.35;25.38;;;;;;;;;;5013560;28;20108;-48
2022/02/08 20:42:24;;;;;;;39.38;34.90;;;;;;;;;;5010758;28;20882;-47
2022/02/08 20:44:49;;;;;;;31.27;25.33;;;;;;;;;;5013023;28;20388;-44
2022/02/08 20:47:24;;;;;;;31.67;28.05;;;;;;;;;;5017505;28;20537;-44
2022/02/08 20:49:56;;;;;;;30.25;27.17;;;;;;;;;;5017317;28;20075;-44
2022/02/08 20:52:22;;;;;;;38.33;31.05;;;;;;;;;;5012077;28;20026;-45
2022/02/08 20:54:51;;;;;;;44.00;36.42;;;;;;;;;;5016177;28;20036;-44
2022/02/08 20:57:23;;;;;;;47.95;41.83;;;;;;;;;;5016202;28;20025;-48
2022/02/08 20:59:51;;;;;;;36.78;32.85;;;;;;;;;;5015564;28;20120;-46
2022/02/08 21:02:17;;;;;;;50.53;39.22;;;;;;;;;;5016045;28;20042;-44
2022/02/08 21:05:00;;;;;;;72.65;56.35;;;;;;;;;;5016735;28;20060;-48
2022/02/08 21:07:25;;;;;;;68.53;50.53;;;;;;;;;;5014030;28;20044;-45
2022/02/08 21:09:50;;;;;;;36.83;31.17;;;;;;;;;;5014601;28;20459;-45
2022/02/08 21:12:41;;;;;;;42.95;33.65;;;;;;;;;;5012126;28;20491;-46
2022/02/08 21:15:08;;;;;;;58.13;45.65;;;;;;;;;;5018028;28;20040;-47
2022/02/08 21:17:34;;;;;;;42.28;37.53;;;;;;;;;;5015768;28;20040;-48
2022/02/08 21:19:59;;;;;;;42.88;35.38;;;;;;;;;;5018638;28;20044;-50
2022/02/08 21:22:24;;;;;;;47.30;39.33;;;;;;;;;;5012868;28;20045;-50
2022/02/08 21:24:52;;;;;;;40.80;33.42;;;;;;;;;;5017798;28;20018;-47
2022/02/08 21:27:19;;;;;;;44.65;37.47;;;;;;;;;;5014932;28;20623;-49
2022/02/08 21:29:54;;;;;;;53.60;39.53;;;;;;;;;;5015276;28;20104;-43
2022/02/08 21:32:46;;;;;;;44.25;38.17;;;;;;;;;;5015477;28;20138;-44
2022/02/08 21:51:28;;;;;;;61.15;54.20;;;;;;;;;;5009965;28;20053;-47
2022/02/08 21:53:55;;;;;;;75.82;61.92;;;;;;;;;;5015274;28;20040;-44
2022/02/08 21:56:20;;;;;;;51.63;43.42;;;;;;;;;;5015873;28;20030;-46
2022/02/08 21:58:46;;;;;;;44.00;33.80;;;;;;;;;;5017318;28;20032;-51
2022/02/08 22:01:11;;;;;;;38.95;31.52;;;;;;;;;;5015262;28;20603;-44
2022/02/08 22:03:37;;;;;;;34.47;27.95;;;;;;;;;;5012897;28;20021;-44
2022/02/08 22:06:04;;;;;;;35.13;31.17;;;;;;;;;;5014635;28;20096;-46
2022/02/08 22:21:44;;;;;;;51.05;38.83;;;;;;;;;;5013493;28;20009;-47
2022/02/08 22:24:25;;;;;;;45.97;37.33;;;;;;;;;;5015056;28;20108;-45
2022/02/08 22:29:47;;;;;;;44.33;38.03;;;;;;;;;;5013916;28;20041;-47
2022/02/08 22:32:19;;;;;;;61.72;42.65;;;;;;;;;;5011293;28;20104;-50
2022/02/08 22:34:51;;;;;;;57.22;40.47;;;;;;;;;;5011837;28;20092;-44
2022/02/08 22:37:33;;;;;;;52.00;39.92;;;;;;;;;;5016703;28;20025;-47
2022/02/08 22:40:19;;;;;;;45.58;40.65;;;;;;;;;;5011221;28;20038;-48
2022/02/08 22:42:48;;;;;;;49.53;37.85;;;;;;;;;;5013841;28;20017;-45
2022/02/08 22:45:16;;;;;;;53.95;42.47;;;;;;;;;;5014417;28;20080;-46
2022/02/08 22:47:43;;;;;;;58.05;42.08;;;;;;;;;;5017590;28;20080;-47
2022/02/08 22:50:12;;;;;;;51.10;44.65;;;;;;;;;;5016015;28;20034;-49
2022/02/08 22:52:37;;;;;;;53.63;43.22;;;;;;;;;;5014857;28;20029;-46
2022/02/08 22:55:03;;;;;;;69.07;42.83;;;;;;;;;;5015349;28;20084;-47
2022/02/08 22:57:28;;;;;;;39.53;35.38;;;;;;;;;;5015922;28;20099;-50
2022/02/08 22:59:56;;;;;;;67.22;40.30;;;;;;;;;;5016509;28;20025;-48
2022/02/08 23:02:21;;;;;;;44.03;35.72;;;;;;;;;;5015879;28;20036;-45
2022/02/08 23:04:48;;;;;;;50.88;41.15;;;;;;;;;;5016998;28;20025;-46
2022/02/08 23:07:14;;;;;;;48.28;34.67;;;;;;;;;;5015028;28;20549;-50
2022/02/08 23:09:50;;;;;;;53.35;33.33;;;;;;;;;;5017625;28;20030;-46
2022/02/08 23:14:58;;;;;;;35.58;30.58;;;;;;;;;;5011481;28;20091;-45
2022/02/08 23:38:58;;;;;;;52.30;30.77;;;;;;;;;;5018089;28;20564;-47